createdAt,value
2023-05-05T00:00:27.428Z,0.77
2023-05-05T00:05:28.910Z,0.98
2023-05-05T00:10:30.443Z,0.85
2023-05-05T00:15:32.336Z,0.77
2023-05-05T00:20:33.817Z,0.75
2023-05-05T00:25:35.332Z,0.90
2023-05-05T00:30:37.437Z,1.05
2023-05-05T00:35:39.111Z,0.98
2023-05-05T00:40:40.665Z,1.13
2023-05-05T00:45:44.703Z,0.90
2023-05-05T00:50:46.202Z,0.70
2023-05-05T00:55:47.917Z,0.98
2023-05-05T01:00:49.422Z,0.98
2023-05-05T01:05:51.423Z,0.82
2023-05-05T01:10:58.787Z,0.90
2023-05-05T01:16:06.980Z,0.90
2023-05-05T01:21:27.553Z,0.90
2023-05-05T01:26:47.923Z,1.00
2023-05-05T01:31:53.371Z,1.17
2023-05-05T01:37:21.160Z,1.05
2023-05-05T01:42:24.160Z,0.70
2023-05-05T01:47:26.870Z,0.68
2023-05-05T01:52:29.615Z,0.77
2023-05-05T01:57:32.020Z,0.70
2023-05-05T02:02:35.231Z,0.68
2023-05-05T02:07:36.958Z,0.75
2023-05-05T02:12:39.779Z,0.60
2023-05-05T02:17:42.879Z,1.00
2023-05-05T02:22:44.690Z,1.02
2023-05-05T02:27:47.248Z,0.80
2023-05-05T02:32:52.949Z,1.05
2023-05-05T02:38:05.738Z,0.98
2023-05-05T02:43:09.529Z,0.88
2023-05-05T02:48:13.080Z,1.00
2023-05-05T02:53:14.763Z,1.05
2023-05-05T02:58:26.268Z,0.88
2023-05-05T03:03:36.676Z,0.77
2023-05-05T03:08:43.107Z,0.82
2023-05-05T03:13:47.323Z,1.13
2023-05-05T03:18:51.218Z,1.23
2023-05-05T03:23:52.713Z,0.93
2023-05-05T03:28:54.257Z,0.88
2023-05-05T03:33:55.772Z,1.45
2023-05-05T03:38:58.133Z,1.02
2023-05-05T03:43:59.750Z,1.20
2023-05-05T03:49:01.603Z,1.35
2023-05-05T03:54:03.472Z,1.45
2023-05-05T03:59:05.004Z,1.58
2023-05-05T04:04:06.625Z,1.25
2023-05-05T04:09:08.255Z,1.38
2023-05-05T04:14:09.762Z,1.83
2023-05-05T04:19:13.183Z,1.02
2023-05-05T04:24:14.666Z,1.48
2023-05-05T04:29:16.254Z,1.80
2023-05-05T04:34:17.792Z,1.13
2023-05-05T04:39:19.502Z,1.20
2023-05-05T04:44:21.232Z,1.20
2023-05-05T04:49:22.947Z,1.45
2023-05-05T04:54:24.494Z,1.40
2023-05-05T04:59:26.051Z,2.05
2023-05-05T05:04:27.664Z,1.75
2023-05-05T05:09:29.195Z,1.45
2023-05-05T05:14:30.703Z,1.02
2023-05-05T05:19:32.317Z,1.00
2023-05-05T05:24:34.964Z,0.90
2023-05-05T05:29:36.562Z,0.80
2023-05-05T05:34:38.033Z,0.98
2023-05-05T05:39:40.712Z,0.95
2023-05-05T05:44:44.220Z,0.90
2023-05-05T05:49:45.850Z,1.40
2023-05-05T05:54:47.346Z,1.17
2023-05-05T05:59:48.945Z,0.85
2023-05-05T06:04:50.736Z,0.88
2023-05-05T06:09:52.225Z,0.90
2023-05-05T06:14:53.741Z,0.98
2023-05-05T06:19:55.308Z,0.80
2023-05-05T06:24:56.839Z,0.90
2023-05-05T06:29:58.350Z,0.75
2023-05-05T06:34:59.833Z,0.88
2023-05-05T06:40:01.344Z,0.80
2023-05-05T06:45:02.960Z,0.63
2023-05-05T06:50:04.747Z,0.60
2023-05-05T06:55:06.637Z,0.60
2023-05-05T07:00:11.387Z,1.08
2023-05-05T07:05:12.976Z,0.90
2023-05-05T07:10:14.516Z,0.50
2023-05-05T07:15:26.808Z,1.13
2023-05-05T07:20:29.999Z,0.98
2023-05-05T07:25:31.602Z,0.70
2023-05-05T07:30:33.113Z,0.80
2023-05-05T07:35:34.645Z,0.95
2023-05-05T07:40:36.135Z,0.82
2023-05-05T07:45:38.068Z,0.65
2023-05-05T07:50:39.689Z,0.68
2023-05-05T07:55:41.792Z,0.45
2023-05-05T08:00:44.048Z,0.60
2023-05-05T08:05:45.611Z,0.80
2023-05-05T08:10:47.113Z,0.55
2023-05-05T08:15:48.659Z,0.70
2023-05-05T08:20:50.586Z,0.50
2023-05-05T08:25:52.445Z,0.60
2023-05-05T08:30:54.205Z,0.68
2023-05-05T08:35:55.685Z,0.77
2023-05-05T08:40:57.214Z,0.45
2023-05-05T08:45:59.410Z,0.80
2023-05-05T08:51:05.428Z,0.47
2023-05-05T08:56:07.912Z,0.90
2023-05-05T09:01:10.321Z,0.55
2023-05-05T09:06:11.866Z,0.70
2023-05-05T09:11:13.330Z,0.50
2023-05-05T09:16:14.812Z,0.38
2023-05-05T09:21:23.208Z,0.60
2023-05-05T09:26:24.701Z,0.50
2023-05-05T09:31:26.612Z,0.93
2023-05-05T09:36:48.914Z,0.60
2023-05-05T09:41:50.938Z,0.70
2023-05-05T09:46:55.272Z,0.50
2023-05-05T09:51:57.169Z,0.65
2023-05-05T09:56:58.732Z,0.43
2023-05-05T10:02:18.235Z,0.45
2023-05-05T10:07:24.211Z,0.40
2023-05-05T10:12:26.165Z,0.50
2023-05-05T10:17:30.757Z,0.70
2023-05-05T10:22:35.345Z,1.27
2023-05-05T10:27:42.836Z,0.50
2023-05-05T10:33:00.470Z,0.70
2023-05-05T10:38:08.408Z,0.60
2023-05-05T10:43:10.653Z,0.60
2023-05-05T10:48:14.836Z,0.70
2023-05-05T10:53:16.482Z,0.47
2023-05-05T10:58:43.696Z,0.60
2023-05-05T11:04:13.030Z,0.43
2023-05-05T11:09:27.045Z,0.40
2023-05-05T11:14:28.544Z,0.43
2023-05-05T11:19:45.864Z,0.60
2023-05-05T11:24:47.975Z,0.60
2023-05-05T11:30:04.860Z,0.52
2023-05-05T11:35:07.268Z,0.50
2023-05-05T11:40:23.897Z,0.68
2023-05-05T11:45:25.677Z,0.60
2023-05-05T11:50:27.518Z,0.63
2023-05-05T11:55:30.696Z,0.50
2023-05-05T12:00:32.946Z,0.60
2023-05-05T12:05:36.653Z,0.70
2023-05-05T12:10:38.773Z,0.77
2023-05-05T12:15:40.385Z,0.52
2023-05-05T12:20:41.911Z,0.55
2023-05-05T12:25:43.455Z,0.60
2023-05-05T12:30:56.855Z,0.70
2023-05-05T12:35:58.460Z,0.60
2023-05-05T12:40:59.951Z,0.50
2023-05-05T12:46:05.732Z,0.70
2023-05-05T12:51:11.119Z,0.68
2023-05-05T12:56:31.124Z,0.47
2023-05-05T13:01:32.764Z,0.45
2023-05-05T13:06:34.326Z,0.77
2023-05-05T13:11:39.241Z,0.70
2023-05-05T13:16:40.997Z,0.40
2023-05-05T13:21:42.511Z,0.40
2023-05-05T13:26:44.081Z,0.70
2023-05-05T13:31:45.969Z,0.50
2023-05-05T13:36:47.653Z,0.80
2023-05-05T13:41:49.330Z,0.60
2023-05-05T13:46:51.268Z,0.60
2023-05-05T13:51:52.818Z,0.47
2023-05-05T13:56:54.374Z,0.47
2023-05-05T14:01:56.139Z,0.57
2023-05-05T14:06:58.643Z,0.70
2023-05-05T14:12:00.210Z,0.40
2023-05-05T14:17:01.732Z,0.55
2023-05-05T14:22:03.334Z,0.45
2023-05-05T14:27:04.849Z,1.00
2023-05-05T14:32:06.553Z,0.85
2023-05-05T14:37:08.127Z,0.65
2023-05-05T14:42:09.619Z,0.50
2023-05-05T14:47:11.306Z,0.80
2023-05-05T14:52:12.862Z,0.45
2023-05-05T14:57:14.378Z,0.65
2023-05-05T15:02:16.020Z,0.50
2023-05-05T15:07:17.524Z,0.60
2023-05-05T15:12:19.583Z,0.60
2023-05-05T15:17:21.323Z,0.50
2023-05-05T15:22:22.920Z,0.40
2023-05-05T15:27:24.424Z,0.47
2023-05-05T15:32:26.012Z,0.90
2023-05-05T15:37:28.982Z,0.80
2023-05-05T15:42:31.862Z,0.45
2023-05-05T15:47:33.517Z,0.43
2023-05-05T15:52:35.134Z,0.60
2023-05-05T15:57:36.753Z,0.60
2023-05-05T16:02:38.461Z,0.95
2023-05-05T16:07:40.078Z,1.30
2023-05-05T16:12:41.666Z,0.70
2023-05-05T16:17:43.272Z,0.57
2023-05-05T16:22:44.825Z,0.70
2023-05-05T16:27:46.355Z,1.30
2023-05-05T16:32:51.215Z,0.95
2023-05-05T16:37:52.874Z,0.70
2023-05-05T16:42:54.456Z,0.50
2023-05-05T16:47:56.174Z,0.65
2023-05-05T16:52:57.714Z,0.75
2023-05-05T16:57:59.267Z,0.50
2023-05-05T17:03:02.339Z,0.90
2023-05-05T17:08:04.066Z,0.60
2023-05-05T17:13:05.732Z,0.68
2023-05-05T17:18:07.996Z,0.50
2023-05-05T17:23:09.581Z,0.65
2023-05-05T17:28:11.142Z,0.60
2023-05-05T17:33:12.790Z,0.43
2023-05-05T17:38:14.357Z,0.90
2023-05-05T17:43:15.899Z,0.55
2023-05-05T17:48:17.810Z,0.70
2023-05-05T17:53:19.425Z,0.63
2023-05-05T17:58:20.955Z,0.75
2023-05-05T18:03:22.715Z,0.70
2023-05-05T18:08:24.381Z,0.57
2023-05-05T18:13:25.882Z,0.73
2023-05-05T18:18:27.507Z,0.50
2023-05-05T18:23:29.150Z,0.40
2023-05-05T18:28:30.670Z,0.60
2023-05-05T18:33:32.205Z,0.60
2023-05-05T18:38:33.717Z,0.60
2023-05-05T18:43:35.212Z,0.88
2023-05-05T18:48:37.042Z,0.90
2023-05-05T18:53:38.601Z,0.82
2023-05-05T18:58:40.125Z,0.77
2023-05-05T19:03:41.625Z,0.82
2023-05-05T19:08:46.072Z,0.75
2023-05-05T19:13:47.586Z,0.65
2023-05-05T19:18:49.378Z,0.77
2023-05-05T19:23:50.877Z,0.80
2023-05-05T19:28:52.453Z,1.30
2023-05-05T19:33:59.127Z,0.90
2023-05-05T19:39:01.888Z,1.02
2023-05-05T19:44:03.565Z,0.60
2023-05-05T19:49:05.319Z,0.68
2023-05-05T19:54:06.876Z,0.70
2023-05-05T19:59:09.421Z,0.45
2023-05-05T20:04:11.005Z,0.80
2023-05-05T20:09:12.549Z,0.47
2023-05-05T20:14:14.060Z,0.70
2023-05-05T20:19:15.764Z,0.70
2023-05-05T20:24:17.366Z,0.60
2023-05-05T20:29:20.324Z,0.57
2023-05-05T20:34:24.145Z,0.50
2023-05-05T20:39:25.992Z,0.65
2023-05-05T20:44:27.532Z,0.60
2023-05-05T20:49:30.603Z,0.57
2023-05-05T20:54:33.725Z,0.60
2023-05-05T20:59:35.300Z,0.50
2023-05-05T21:04:36.821Z,0.50
2023-05-05T21:09:38.399Z,0.73
2023-05-05T21:14:43.981Z,0.52
2023-05-05T21:19:45.463Z,0.57
2023-05-05T21:24:47.064Z,0.70
2023-05-05T21:29:50.455Z,0.77
2023-05-05T21:34:51.981Z,0.90
2023-05-05T21:39:53.714Z,0.93
2023-05-05T21:44:55.354Z,1.13
2023-05-05T21:49:57.977Z,0.60
2023-05-05T21:54:59.474Z,0.93
2023-05-05T22:00:00.965Z,0.82
2023-05-05T22:05:02.527Z,0.75
2023-05-05T22:10:04.158Z,0.93
2023-05-05T22:15:05.942Z,1.10
2023-05-05T22:20:09.392Z,0.90
2023-05-05T22:25:11.497Z,0.77
2023-05-05T22:30:13.754Z,0.70
2023-05-05T22:35:15.286Z,0.93
2023-05-05T22:40:16.867Z,0.82
2023-05-05T22:45:18.526Z,0.90
2023-05-05T22:50:20.257Z,0.60
2023-05-05T22:55:21.933Z,0.73
2023-05-05T23:00:23.851Z,0.55
2023-05-05T23:05:25.575Z,0.70
2023-05-05T23:10:28.839Z,0.82
2023-05-05T23:15:30.978Z,1.02
2023-05-05T23:20:32.639Z,0.75
2023-05-05T23:25:34.188Z,0.73
2023-05-05T23:30:35.842Z,0.90
2023-05-05T23:35:43.471Z,0.90
2023-05-05T23:40:45.071Z,0.60
2023-05-05T23:45:47.126Z,0.90
2023-05-05T23:50:48.779Z,0.73
2023-05-05T23:55:50.396Z,0.88
